Terminal Aerodrome Forecast
Issued by NWS

Home | Current Version | Previous Version | Text Only | Print | Product List | Glossary On
Versions: 1 2 3 4 5 6 7 8 9 10 11 12 13
000
FTUS45 KRIW 272300
TAFBPI
TAF
KBPI 272320Z 2800/2824 17008KT P6SM -SHRA SCT020 OVC050
     FM280200 VRB06KT P6SM SCT035 BKN080
     FM280700 VRB05KT P6SM SCT090
     FM281900 31012G18KT P6SM FEW090=

USA.gov is the U.S. government's official web portal to all federal, state and local government web resources and services.